createdAt,value
2023-05-18T00:00:14.286Z,102780.44
2023-05-18T00:02:41.430Z,102776.44
2023-05-18T00:05:10.358Z,102777.75
2023-05-18T00:07:39.385Z,102781.06
2023-05-18T00:10:08.485Z,102778.72
2023-05-18T00:12:35.526Z,102785.47
2023-05-18T00:15:02.703Z,102786.50
2023-05-18T00:17:31.721Z,102785.66
2023-05-18T00:19:59.543Z,102788.31
2023-05-18T00:22:26.467Z,102792.25
2023-05-18T00:24:54.861Z,102789.25
2023-05-18T00:27:21.814Z,102790.72
2023-05-18T00:29:48.723Z,102798.63
2023-05-18T00:32:15.754Z,102788.78
2023-05-18T00:34:42.769Z,102793.88
2023-05-18T00:37:09.673Z,102797.69
2023-05-18T00:39:36.744Z,102788.56
2023-05-18T00:42:05.768Z,102789.25
2023-05-18T00:44:32.658Z,102794.25
2023-05-18T00:47:00.157Z,102792.44
2023-05-18T00:49:27.517Z,102799.06
2023-05-18T00:51:55.919Z,102790.72
2023-05-18T00:54:23.115Z,102792.72
2023-05-18T00:56:51.594Z,102791.97
2023-05-18T00:59:19.997Z,102793.28
2023-05-18T01:01:48.520Z,102787.00
2023-05-18T01:04:15.418Z,102778.19
2023-05-18T01:06:42.801Z,102786.66
2023-05-18T01:09:12.314Z,102788.75
2023-05-18T01:11:55.813Z,102786.47
2023-05-18T01:14:31.807Z,102789.13
2023-05-18T01:17:11.422Z,102788.44
2023-05-18T01:20:22.510Z,102795.69
2023-05-18T01:23:12.200Z,102796.41
2023-05-18T01:25:50.097Z,102790.75
2023-05-18T01:28:26.238Z,102794.47
2023-05-18T01:30:54.131Z,102792.16
2023-05-18T01:33:21.338Z,102793.53
2023-05-18T01:35:48.879Z,102790.25
2023-05-18T01:38:20.001Z,102794.91
2023-05-18T01:40:56.567Z,102797.25
2023-05-18T01:43:33.935Z,102798.75
2023-05-18T01:46:09.949Z,102800.94
2023-05-18T01:48:43.200Z,102797.97
2023-05-18T01:51:15.390Z,102794.66
2023-05-18T01:53:50.824Z,102792.00
2023-05-18T01:56:20.709Z,102798.28
2023-05-18T01:58:50.268Z,102799.06
2023-05-18T02:01:20.078Z,102796.88
2023-05-18T02:03:47.218Z,102799.88
2023-05-18T02:06:14.178Z,102790.25
2023-05-18T02:08:41.380Z,102803.22
2023-05-18T02:11:08.309Z,102789.75
2023-05-18T02:13:35.215Z,102802.72
2023-05-18T02:16:05.180Z,102795.59
2023-05-18T02:18:34.169Z,102792.78
2023-05-18T02:21:02.166Z,102801.59
2023-05-18T02:23:29.267Z,102796.94
2023-05-18T02:25:56.165Z,102797.97
2023-05-18T02:28:23.501Z,102795.69
2023-05-18T02:30:50.563Z,102796.03
2023-05-18T02:33:19.566Z,102796.69
2023-05-18T02:35:47.136Z,102799.19
2023-05-18T02:38:14.047Z,102800.34
2023-05-18T02:40:41.064Z,102799.66
2023-05-18T02:43:08.149Z,102804.00
2023-05-18T02:45:35.144Z,102797.00
2023-05-18T02:48:02.116Z,102800.69
2023-05-18T02:50:30.414Z,102795.38
2023-05-18T02:52:57.326Z,102794.53
2023-05-18T02:55:24.336Z,102797.69
2023-05-18T02:57:56.835Z,102799.34
2023-05-18T03:00:24.107Z,102795.38
2023-05-18T03:02:51.527Z,102799.66
2023-05-18T03:05:23.646Z,102796.94
2023-05-18T03:07:54.207Z,102798.41
2023-05-18T03:10:21.927Z,102797.91
2023-05-18T03:12:49.287Z,102794.56
2023-05-18T03:15:16.257Z,102799.19
2023-05-18T03:17:43.439Z,102800.03
2023-05-18T03:20:14.173Z,102807.84
2023-05-18T03:22:41.594Z,102805.88
2023-05-18T03:25:09.889Z,102807.38
2023-05-18T03:27:37.778Z,102803.41
2023-05-18T03:30:06.497Z,102799.78
2023-05-18T03:32:33.955Z,102809.84
2023-05-18T03:35:04.619Z,102812.69
2023-05-18T03:37:32.503Z,102817.31
2023-05-18T03:40:11.082Z,102809.97
2023-05-18T03:42:38.340Z,102809.47
2023-05-18T03:45:07.086Z,102806.44
2023-05-18T03:47:34.119Z,102819.06
2023-05-18T03:50:01.083Z,102810.25
2023-05-18T03:52:29.800Z,102811.91
2023-05-18T03:54:56.971Z,102818.72
2023-05-18T03:57:25.570Z,102816.06
2023-05-18T03:59:52.461Z,102818.41
2023-05-18T04:02:19.453Z,102816.44
2023-05-18T04:04:47.301Z,102821.44
2023-05-18T04:07:17.489Z,102819.44
2023-05-18T04:09:44.760Z,102823.13
2023-05-18T04:12:11.782Z,102818.50
2023-05-18T04:14:42.283Z,102831.09
2023-05-18T04:17:10.086Z,102834.75
2023-05-18T04:19:38.019Z,102831.63
2023-05-18T04:22:07.968Z,102825.16
2023-05-18T04:24:35.604Z,102831.84
2023-05-18T04:27:03.723Z,102838.84
2023-05-18T04:29:30.905Z,102834.22
2023-05-18T04:32:02.004Z,102850.69
2023-05-18T04:34:31.241Z,102845.88
2023-05-18T04:36:58.730Z,102856.00
2023-05-18T04:39:27.299Z,102858.19
2023-05-18T04:41:58.188Z,102856.38
2023-05-18T04:44:25.889Z,102859.69
2023-05-18T04:46:53.109Z,102857.56
2023-05-18T04:49:22.544Z,102866.22
2023-05-18T04:51:50.112Z,102864.88
2023-05-18T04:54:17.111Z,102865.56
2023-05-18T04:56:44.026Z,102861.59
2023-05-18T04:59:11.076Z,102860.28
2023-05-18T05:01:38.006Z,102864.13
2023-05-18T05:04:06.237Z,102865.69
2023-05-18T05:06:34.480Z,102865.50
2023-05-18T05:09:01.459Z,102865.50
2023-05-18T05:11:28.413Z,102868.84
2023-05-18T05:13:55.448Z,102874.66
2023-05-18T05:16:22.473Z,102872.31
2023-05-18T05:18:49.576Z,102868.53
2023-05-18T05:21:16.576Z,102871.66
2023-05-18T05:23:45.251Z,102873.34
2023-05-18T05:26:12.224Z,102873.84
2023-05-18T05:28:39.182Z,102878.72
2023-05-18T05:31:06.386Z,102875.38
2023-05-18T05:33:33.578Z,102881.72
2023-05-18T05:36:00.890Z,102882.06
2023-05-18T05:38:27.791Z,102892.03
2023-05-18T05:40:56.097Z,102887.25
2023-05-18T05:43:23.053Z,102888.44
2023-05-18T05:45:50.350Z,102887.09
2023-05-18T05:48:17.479Z,102887.25
2023-05-18T05:50:44.491Z,102883.78
2023-05-18T05:53:11.526Z,102890.44
2023-05-18T05:55:41.296Z,102881.28
2023-05-18T05:58:10.276Z,102889.09
2023-05-18T06:00:37.192Z,102893.75
2023-05-18T06:03:04.265Z,102891.41
2023-05-18T06:05:31.716Z,102893.06
2023-05-18T06:07:58.800Z,102889.41
2023-05-18T06:10:25.948Z,102893.75
2023-05-18T06:12:52.853Z,102897.22
2023-05-18T06:15:21.269Z,102896.91
2023-05-18T06:17:48.220Z,102903.53
2023-05-18T06:20:15.248Z,102898.41
2023-05-18T06:22:43.622Z,102901.44
2023-05-18T06:25:10.882Z,102897.44
2023-05-18T06:27:38.499Z,102892.78
2023-05-18T06:30:08.093Z,102895.09
2023-05-18T06:32:37.473Z,102901.47
2023-05-18T06:35:06.133Z,102910.78
2023-05-18T06:37:33.419Z,102908.59
2023-05-18T06:40:00.470Z,102908.94
2023-05-18T06:42:27.419Z,102907.41
2023-05-18T06:44:54.323Z,102914.22
2023-05-18T06:47:21.250Z,102917.34
2023-05-18T06:49:49.504Z,102918.00
2023-05-18T06:52:16.641Z,102915.03
2023-05-18T06:54:43.663Z,102919.03
2023-05-18T06:57:10.792Z,102916.38
2023-05-18T06:59:37.703Z,102923.00
2023-05-18T07:02:05.156Z,102922.34
2023-05-18T07:04:32.174Z,102926.97
2023-05-18T07:07:00.459Z,102911.81
2023-05-18T07:09:27.384Z,102924.13
2023-05-18T07:11:54.450Z,102921.31
2023-05-18T07:14:21.384Z,102919.63
2023-05-18T07:16:48.298Z,102919.63
2023-05-18T07:19:15.434Z,102918.34
2023-05-18T07:21:43.007Z,102910.66
2023-05-18T07:24:11.279Z,102919.97
2023-05-18T07:26:38.266Z,102920.81
2023-05-18T07:29:05.188Z,102921.78
2023-05-18T07:31:32.487Z,102915.88
2023-05-18T07:33:59.722Z,102916.84
2023-05-18T07:36:28.481Z,102919.81
2023-05-18T07:38:56.719Z,102919.94
2023-05-18T07:41:25.027Z,102917.72
2023-05-18T07:43:52.407Z,102922.03
2023-05-18T07:46:19.903Z,102919.66
2023-05-18T07:48:46.865Z,102916.59
2023-05-18T07:51:14.028Z,102910.63
2023-05-18T07:53:42.965Z,102909.66
2023-05-18T07:56:09.901Z,102911.69
2023-05-18T07:58:38.248Z,102917.97
2023-05-18T08:01:05.280Z,102913.63
2023-05-18T08:03:32.758Z,102915.66
2023-05-18T08:06:00.661Z,102925.34
2023-05-18T08:08:28.749Z,102918.22
2023-05-18T08:10:55.898Z,102925.78
2023-05-18T08:13:22.814Z,102918.69
2023-05-18T08:16:02.992Z,102917.00
2023-05-18T08:18:37.928Z,102922.16
2023-05-18T08:21:08.026Z,102923.19
2023-05-18T08:23:35.116Z,102926.16
2023-05-18T08:26:03.506Z,102927.66
2023-05-18T08:28:30.623Z,102927.38
2023-05-18T08:30:58.831Z,102915.00
2023-05-18T08:33:26.015Z,102919.63
2023-05-18T08:35:54.542Z,102913.72
2023-05-18T08:38:21.477Z,102918.25
2023-05-18T08:41:02.047Z,102919.47
2023-05-18T08:43:33.417Z,102924.41
2023-05-18T08:46:10.877Z,102926.25
2023-05-18T08:48:38.228Z,102927.06
2023-05-18T08:51:08.506Z,102924.06
2023-05-18T08:53:38.979Z,102924.66
2023-05-18T08:56:06.471Z,102924.53
2023-05-18T08:58:41.056Z,102916.28
2023-05-18T09:01:09.968Z,102922.06
2023-05-18T09:03:38.223Z,102920.16
2023-05-18T09:06:07.278Z,102919.53
2023-05-18T09:08:34.720Z,102926.22
2023-05-18T09:11:03.327Z,102912.56
2023-05-18T09:13:31.182Z,102908.59
2023-05-18T09:15:58.224Z,102909.66
2023-05-18T09:18:28.336Z,102912.34
2023-05-18T09:20:55.986Z,102903.47
2023-05-18T09:23:23.879Z,102903.88
2023-05-18T09:25:53.044Z,102901.81
2023-05-18T09:28:31.099Z,102900.03
2023-05-18T09:30:58.188Z,102901.31
2023-05-18T09:33:32.439Z,102891.50
2023-05-18T09:35:59.535Z,102893.16
2023-05-18T09:38:28.078Z,102896.31
2023-05-18T09:40:55.641Z,102885.84
2023-05-18T09:43:22.698Z,102893.94
2023-05-18T09:45:50.013Z,102886.63
2023-05-18T09:48:17.668Z,102883.66
2023-05-18T09:50:46.402Z,102884.69
2023-05-18T09:53:15.562Z,102880.28
2023-05-18T09:55:47.591Z,102875.81
2023-05-18T09:58:15.400Z,102874.53
2023-05-18T10:00:47.270Z,102877.06
2023-05-18T10:03:19.807Z,102873.09
2023-05-18T10:05:48.239Z,102873.41
2023-05-18T10:08:16.609Z,102870.63
2023-05-18T10:10:46.114Z,102876.16
2023-05-18T10:13:14.963Z,102876.53
2023-05-18T10:15:48.406Z,102871.50
2023-05-18T10:18:22.767Z,102869.97
2023-05-18T10:20:53.469Z,102867.72
2023-05-18T10:23:22.677Z,102859.84
2023-05-18T10:25:51.850Z,102864.50
2023-05-18T10:28:25.840Z,102875.06
2023-05-18T10:30:56.367Z,102872.94
2023-05-18T10:33:29.498Z,102868.75
2023-05-18T10:35:58.410Z,102868.34
2023-05-18T10:38:27.679Z,102869.16
2023-05-18T10:40:57.424Z,102863.06
2023-05-18T10:43:27.532Z,102859.09
2023-05-18T10:45:58.429Z,102869.44
2023-05-18T10:48:27.305Z,102865.44
2023-05-18T10:50:56.599Z,102865.19
2023-05-18T10:53:29.277Z,102868.91
2023-05-18T10:55:56.194Z,102860.63
2023-05-18T10:58:26.563Z,102861.63
2023-05-18T11:00:59.106Z,102860.94
2023-05-18T11:03:28.454Z,102860.28
2023-05-18T11:06:07.897Z,102862.31
2023-05-18T11:08:44.516Z,102854.06
2023-05-18T11:11:11.507Z,102862.84
2023-05-18T11:13:45.771Z,102860.47
2023-05-18T11:16:12.773Z,102857.84
2023-05-18T11:18:45.634Z,102861.22
2023-05-18T11:21:21.572Z,102852.03
2023-05-18T11:24:19.878Z,102845.09
2023-05-18T11:26:49.242Z,102853.34
2023-05-18T11:29:18.587Z,102855.47
2023-05-18T11:31:46.323Z,102854.59
2023-05-18T11:34:50.678Z,102852.31
2023-05-18T11:37:48.246Z,102841.13
2023-05-18T11:40:47.728Z,102845.28
2023-05-18T11:43:22.068Z,102849.94
2023-05-18T11:45:54.831Z,102836.31
2023-05-18T11:48:23.582Z,102836.38
2023-05-18T11:50:54.776Z,102832.38
2023-05-18T11:53:27.584Z,102828.69
2023-05-18T11:55:56.582Z,102825.63
2023-05-18T11:58:26.006Z,102829.41
2023-05-18T12:00:55.350Z,102820.06
2023-05-18T12:03:25.231Z,102824.47
2023-05-18T12:05:52.970Z,102831.28
2023-05-18T12:08:20.572Z,102827.09
2023-05-18T12:10:50.466Z,102821.44
2023-05-18T12:13:19.087Z,102811.53
2023-05-18T12:15:46.603Z,102813.84
2023-05-18T12:18:14.193Z,102818.28
2023-05-18T12:20:41.244Z,102809.88
2023-05-18T12:23:08.175Z,102810.63
2023-05-18T12:25:36.393Z,102826.38
2023-05-18T12:28:04.722Z,102813.19
2023-05-18T12:30:36.637Z,102813.13
2023-05-18T12:33:04.331Z,102804.50
2023-05-18T12:35:33.230Z,102811.56
2023-05-18T12:38:01.324Z,102807.94
2023-05-18T12:40:40.162Z,102804.72
2023-05-18T12:43:07.017Z,102808.22
2023-05-18T12:45:35.496Z,102803.00
2023-05-18T12:48:06.750Z,102797.69
2023-05-18T12:50:34.914Z,102795.66
2023-05-18T12:53:02.002Z,102800.00
2023-05-18T12:55:32.112Z,102796.78
2023-05-18T12:58:04.067Z,102785.94
2023-05-18T13:00:36.891Z,102785.41
2023-05-18T13:03:07.478Z,102793.53
2023-05-18T13:05:34.613Z,102788.75
2023-05-18T13:08:01.628Z,102784.69
2023-05-18T13:10:34.592Z,102780.75
2023-05-18T13:13:03.778Z,102771.69
2023-05-18T13:15:36.360Z,102778.38
2023-05-18T13:18:05.839Z,102766.44
2023-05-18T13:20:36.855Z,102766.31
2023-05-18T13:23:08.887Z,102755.69
2023-05-18T13:25:36.400Z,102753.81
2023-05-18T13:28:03.902Z,102759.78
2023-05-18T13:30:31.932Z,102752.03
2023-05-18T13:33:00.957Z,102754.03
2023-05-18T13:35:28.265Z,102754.28
2023-05-18T13:37:55.304Z,102759.44
2023-05-18T13:40:25.274Z,102751.84
2023-05-18T13:42:52.532Z,102758.72
2023-05-18T13:45:21.618Z,102744.16
2023-05-18T13:47:52.057Z,102740.75
2023-05-18T13:50:21.613Z,102741.09
2023-05-18T13:52:48.788Z,102740.03
2023-05-18T13:55:15.904Z,102734.00
2023-05-18T13:57:43.820Z,102737.63
2023-05-18T14:00:13.050Z,102725.28
2023-05-18T14:02:40.831Z,102735.78
2023-05-18T14:05:08.675Z,102733.72
2023-05-18T14:07:37.883Z,102730.06
2023-05-18T14:10:06.745Z,102720.53
2023-05-18T14:12:34.235Z,102720.59
2023-05-18T14:15:02.110Z,102719.81
2023-05-18T14:17:35.460Z,102724.94
2023-05-18T14:20:04.840Z,102724.03
2023-05-18T14:22:32.081Z,102716.06
2023-05-18T14:25:00.928Z,102713.75
2023-05-18T14:27:28.402Z,102712.59
2023-05-18T14:29:56.195Z,102712.31
2023-05-18T14:32:23.321Z,102710.59
2023-05-18T14:34:51.931Z,102714.69
2023-05-18T14:37:19.174Z,102705.88
2023-05-18T14:39:46.245Z,102695.66
2023-05-18T14:42:14.440Z,102708.56
2023-05-18T14:44:41.285Z,102707.16
2023-05-18T14:47:08.321Z,102693.97
2023-05-18T14:49:35.474Z,102699.03
2023-05-18T14:52:02.297Z,102699.94
2023-05-18T14:54:29.210Z,102703.94
2023-05-18T14:56:56.234Z,102699.88
2023-05-18T14:59:24.414Z,102692.13
2023-05-18T15:01:52.244Z,102688.59
2023-05-18T15:04:21.589Z,102697.66
2023-05-18T15:06:49.431Z,102690.06
2023-05-18T15:09:16.366Z,102688.69
2023-05-18T15:11:43.355Z,102694.69
2023-05-18T15:14:10.280Z,102686.59
2023-05-18T15:16:38.788Z,102681.78
2023-05-18T15:19:06.202Z,102671.09
2023-05-18T15:21:33.253Z,102678.25
2023-05-18T15:24:00.272Z,102679.03
2023-05-18T15:26:27.464Z,102681.72
2023-05-18T15:28:54.493Z,102680.81
2023-05-18T15:31:21.512Z,102678.25
2023-05-18T15:33:49.823Z,102674.44
2023-05-18T15:36:16.762Z,102673.00
2023-05-18T15:38:43.620Z,102675.22
2023-05-18T15:41:11.769Z,102675.63
2023-05-18T15:43:39.207Z,102667.97
2023-05-18T15:46:06.345Z,102661.88
2023-05-18T15:48:33.288Z,102661.91
2023-05-18T15:51:01.499Z,102656.56
2023-05-18T15:53:28.353Z,102668.56
2023-05-18T15:55:58.599Z,102656.88
2023-05-18T15:58:26.821Z,102655.50
2023-05-18T16:00:54.149Z,102655.06
2023-05-18T16:03:21.330Z,102653.78
2023-05-18T16:05:48.463Z,102652.00
2023-05-18T16:08:17.008Z,102654.59
2023-05-18T16:10:43.870Z,102657.63
2023-05-18T16:13:10.808Z,102648.69
2023-05-18T16:15:37.773Z,102655.25
2023-05-18T16:18:05.535Z,102653.38
2023-05-18T16:20:32.782Z,102646.31
2023-05-18T16:23:00.074Z,102652.66
2023-05-18T16:25:28.997Z,102647.25
2023-05-18T16:27:56.346Z,102647.31
2023-05-18T16:30:23.332Z,102651.66
2023-05-18T16:32:50.364Z,102643.97
2023-05-18T16:35:17.460Z,102634.38
2023-05-18T16:37:44.338Z,102647.31
2023-05-18T16:40:11.994Z,102634.66
2023-05-18T16:42:40.508Z,102643.22
2023-05-18T16:45:08.151Z,102648.72
2023-05-18T16:47:35.122Z,102640.84
2023-05-18T16:50:02.054Z,102642.81
2023-05-18T16:52:29.044Z,102648.97
2023-05-18T16:54:55.961Z,102652.47
2023-05-18T16:57:25.311Z,102647.84
2023-05-18T16:59:54.819Z,102647.19
2023-05-18T17:02:24.071Z,102652.34
2023-05-18T17:04:51.400Z,102652.75
2023-05-18T17:07:18.503Z,102655.28
2023-05-18T17:09:45.668Z,102657.44
2023-05-18T17:12:12.893Z,102655.72
2023-05-18T17:14:39.843Z,102655.59
2023-05-18T17:17:08.399Z,102653.44
2023-05-18T17:19:35.500Z,102653.19
2023-05-18T17:22:02.893Z,102654.56
2023-05-18T17:24:29.831Z,102654.88
2023-05-18T17:26:56.802Z,102661.16
2023-05-18T17:29:23.787Z,102654.19
2023-05-18T17:31:50.721Z,102656.13
2023-05-18T17:34:19.018Z,102651.63
2023-05-18T17:36:46.474Z,102644.44
2023-05-18T17:39:15.677Z,102649.06
2023-05-18T17:41:42.580Z,102651.16
2023-05-18T17:44:13.730Z,102651.81
2023-05-18T17:46:41.077Z,102661.13
2023-05-18T17:49:07.999Z,102654.97
2023-05-18T17:51:36.342Z,102657.66
2023-05-18T17:54:03.675Z,102659.94
2023-05-18T17:56:31.613Z,102660.78
2023-05-18T17:58:59.083Z,102663.63
2023-05-18T18:01:26.372Z,102657.44
2023-05-18T18:03:53.396Z,102659.91
2023-05-18T18:06:22.606Z,102654.53
2023-05-18T18:08:51.692Z,102651.03
2023-05-18T18:11:18.676Z,102656.16
2023-05-18T18:13:45.664Z,102655.13
2023-05-18T18:16:12.890Z,102654.91
2023-05-18T18:18:39.964Z,102655.72
2023-05-18T18:21:07.598Z,102654.66
2023-05-18T18:23:35.650Z,102662.09
2023-05-18T18:26:05.714Z,102656.31
2023-05-18T18:28:33.963Z,102653.19
2023-05-18T18:31:02.108Z,102653.56
2023-05-18T18:33:29.214Z,102654.00
2023-05-18T18:35:57.496Z,102657.06
2023-05-18T18:38:26.853Z,102652.31
2023-05-18T18:40:59.754Z,102659.91
2023-05-18T18:43:28.358Z,102660.50
2023-05-18T18:45:56.967Z,102658.44
2023-05-18T18:48:24.483Z,102659.88
2023-05-18T18:50:52.129Z,102661.28
2023-05-18T18:53:19.052Z,102666.44
2023-05-18T18:55:45.990Z,102664.97
2023-05-18T18:58:12.958Z,102668.88
2023-05-18T19:00:41.332Z,102675.25
2023-05-18T19:03:09.826Z,102676.69
2023-05-18T19:05:36.945Z,102671.09
2023-05-18T19:08:04.019Z,102678.25
2023-05-18T19:10:32.795Z,102685.44
2023-05-18T19:13:04.944Z,102685.38
2023-05-18T19:15:32.565Z,102689.84
2023-05-18T19:18:01.335Z,102688.75
2023-05-18T19:20:28.423Z,102686.84
2023-05-18T19:22:55.456Z,102688.47
2023-05-18T19:25:24.554Z,102697.88
2023-05-18T19:27:52.699Z,102701.16
2023-05-18T19:30:21.478Z,102698.22
2023-05-18T19:32:49.217Z,102701.31
2023-05-18T19:35:19.760Z,102715.06
2023-05-18T19:37:47.253Z,102708.44
2023-05-18T19:40:14.305Z,102720.38
2023-05-18T19:42:41.227Z,102718.28
2023-05-18T19:45:08.732Z,102723.16
2023-05-18T19:47:36.230Z,102729.28
2023-05-18T19:50:04.179Z,102732.91
2023-05-18T19:52:33.663Z,102735.69
2023-05-18T19:55:01.762Z,102733.16
2023-05-18T19:57:28.928Z,102740.03
2023-05-18T19:59:56.042Z,102734.00
2023-05-18T20:02:22.986Z,102733.88
2023-05-18T20:04:50.667Z,102734.44
2023-05-18T20:07:17.943Z,102737.88
2023-05-18T20:09:46.571Z,102734.28
2023-05-18T20:12:13.537Z,102736.69
2023-05-18T20:14:41.076Z,102742.41
2023-05-18T20:17:08.923Z,102749.78
2023-05-18T20:19:37.621Z,102751.19
2023-05-18T20:22:05.074Z,102752.38
2023-05-18T20:24:32.568Z,102750.25
2023-05-18T20:27:01.876Z,102747.94
2023-05-18T20:29:28.791Z,102751.34
2023-05-18T20:31:56.054Z,102755.25
2023-05-18T20:34:23.164Z,102755.13
2023-05-18T20:36:50.096Z,102749.50
2023-05-18T20:39:17.024Z,102764.22
2023-05-18T20:41:43.949Z,102765.59
2023-05-18T20:44:17.419Z,102765.94
2023-05-18T20:46:44.576Z,102767.31
2023-05-18T20:49:15.333Z,102773.00
2023-05-18T20:51:42.295Z,102763.72
2023-05-18T20:54:09.264Z,102765.91
2023-05-18T20:56:36.436Z,102767.09
2023-05-18T20:59:06.165Z,102767.28
2023-05-18T21:01:39.102Z,102769.31
2023-05-18T21:04:06.782Z,102777.88
2023-05-18T21:06:34.374Z,102778.09
2023-05-18T21:09:01.791Z,102772.00
2023-05-18T21:11:30.808Z,102766.34
2023-05-18T21:13:57.745Z,102761.41
2023-05-18T21:16:24.809Z,102766.72
2023-05-18T21:18:53.135Z,102766.09
2023-05-18T21:21:20.066Z,102766.25
2023-05-18T21:23:46.960Z,102767.06
2023-05-18T21:26:13.978Z,102762.75
2023-05-18T21:28:40.914Z,102768.25
2023-05-18T21:31:07.884Z,102764.94
2023-05-18T21:33:34.841Z,102761.78
2023-05-18T21:36:04.125Z,102764.84
2023-05-18T21:38:31.308Z,102762.50
2023-05-18T21:40:58.533Z,102764.88
2023-05-18T21:43:25.516Z,102770.94
2023-05-18T21:45:52.490Z,102762.44
2023-05-18T21:48:19.411Z,102767.09
2023-05-18T21:50:46.306Z,102771.78
2023-05-18T21:53:14.624Z,102777.25
2023-05-18T21:55:41.580Z,102771.63
2023-05-18T21:58:08.480Z,102775.66
2023-05-18T22:00:36.330Z,102774.34
2023-05-18T22:03:03.549Z,102781.50
2023-05-18T22:05:30.779Z,102780.03
2023-05-18T22:07:58.913Z,102778.72
2023-05-18T22:10:27.258Z,102770.88
2023-05-18T22:12:54.278Z,102786.22
2023-05-18T22:15:22.535Z,102775.09
2023-05-18T22:17:49.775Z,102783.44
2023-05-18T22:20:17.099Z,102775.78
2023-05-18T22:22:44.194Z,102768.16
2023-05-18T22:25:12.624Z,102775.47
2023-05-18T22:27:41.092Z,102777.47
2023-05-18T22:30:09.492Z,102776.66
2023-05-18T22:32:36.641Z,102778.50
2023-05-18T22:35:04.232Z,102775.81
2023-05-18T22:37:31.145Z,102773.31
2023-05-18T22:39:58.097Z,102772.50
2023-05-18T22:42:24.993Z,102774.50
2023-05-18T22:44:53.233Z,102770.50
2023-05-18T22:47:23.435Z,102773.88
2023-05-18T22:49:50.806Z,102773.56
2023-05-18T22:52:18.378Z,102767.25
2023-05-18T22:54:45.556Z,102761.63
2023-05-18T22:57:13.006Z,102761.09
2023-05-18T22:59:39.979Z,102763.94
2023-05-18T23:02:08.381Z,102768.63
2023-05-18T23:04:35.708Z,102764.28
2023-05-18T23:07:03.952Z,102771.28
2023-05-18T23:09:31.225Z,102766.81
2023-05-18T23:11:59.452Z,102761.28
2023-05-18T23:14:28.041Z,102758.63
2023-05-18T23:16:58.182Z,102755.31
2023-05-18T23:19:26.922Z,102760.97
2023-05-18T23:21:54.285Z,102760.31
2023-05-18T23:24:21.553Z,102770.31
2023-05-18T23:26:48.669Z,102770.59
2023-05-18T23:29:15.822Z,102769.13
2023-05-18T23:31:42.721Z,102766.63
2023-05-18T23:34:10.545Z,102773.78
2023-05-18T23:36:42.473Z,102760.78
2023-05-18T23:39:10.113Z,102763.81
2023-05-18T23:41:38.036Z,102762.97
2023-05-18T23:44:06.494Z,102753.97
2023-05-18T23:46:35.105Z,102754.50
2023-05-18T23:49:02.797Z,102751.63
2023-05-18T23:51:33.377Z,102754.31
2023-05-18T23:54:07.000Z,102751.50
2023-05-18T23:56:34.692Z,102751.31
2023-05-18T23:59:02.726Z,102752.16
